Sch-135 Galibier — PBIB — position and weather

sailwx.info

Track history (hours):
 
Tides and Currents Weather Stations Pressure Air Temp Water Temp Dewpoint Dewpoint Depression Visibility Wind Speed Wind Dir Waves Ship Positions

Sch-135 Galibier

Last reported at 2016-Jul-29 17:33 UTC. Time now 2016-Jul-29 17:51 UTC.
Position N 52°06' E 004°16'.

Length 35 m; draft 4.2 m.

Type: Fishing. MMSI: 244630637.

Date/timePositionNaut miles runAvg speedWind from/ knotsBaromVisibWave heightAir tempDewpointWater temp
2016-Jul-29 17:33N 52°06' E 004°16'0 0.0
2016-Jul-29 16:33N 52°06' E 004°16'0 0.0
2016-Jul-29 15:33N 52°06' E 004°16'0 0.0
2016-Jul-29 14:33N 52°06' E 004°16'0 0.0
2016-Jul-29 13:34N 52°06' E 004°16'0 0.0
2016-Jul-29 12:33N 52°06' E 004°16'0 0.0
2016-Jul-29 11:33N 52°06' E 004°16'0 0.0
2016-Jul-29 10:33N 52°06' E 004°16'0 0.0
2016-Jul-29 09:33N 52°06' E 004°16'0 0.0
2016-Jul-29 08:33N 52°06' E 004°16'0 0.0
2016-Jul-29 07:33N 52°06' E 004°16'0 0.0
2016-Jul-29 06:33N 52°06' E 004°16'0 0.0
2016-Jul-29 05:33N 52°06' E 004°16'0 0.0
2016-Jul-29 04:33N 52°06' E 004°16'0 0.0
2016-Jul-29 03:33N 52°06' E 004°16'0 0.0
2016-Jul-29 02:33N 52°06' E 004°16'0 0.0
2016-Jul-29 01:33N 52°06' E 004°16'0 0.0
2016-Jul-29 00:33N 52°06' E 004°16'0 0.0
2016-Jul-28 23:33N 52°06' E 004°16'0 0.1
2016-Jul-28 22:33N 52°06' E 004°16'7 6.5
2016-Jul-28 21:33N 52°11' E 004°10'9 9.3
2016-Jul-28 20:33N 52°18' E 003°60'56 2.6
2016-Jul-27 22:33N 52°55' E 002°49'4 3.6
2016-Jul-27 21:33N 52°52' E 002°45'37 2.0
2016-Jul-27 03:24N 52°27' E 003°29'11 9.8
2016-Jul-27 02:17N 52°20' E 003°43'710.1
2016-Jul-27 01:33N 52°16' E 003°53'10 9.9
2016-Jul-27 00:33N 52°11' E 004°06'8 7.7
2016-Jul-26 23:33N 52°06' E 004°16'0 0.0
2016-Jul-26 22:33N 52°06' E 004°16'10 9.8
2016-Jul-26 21:33N 52°12' E 004°04'1010.1
2016-Jul-26 20:32N 52°18' E 003°50'3 0.1
2016-Jul-24 23:33N 52°18' E 003°54'10 9.8
2016-Jul-24 22:33N 52°12' E 004°06'8 8.1
2016-Jul-24 21:31N 52°06' E 004°16'0 0.0
2016-Jul-24 20:31N 52°06' E 004°16'0 0.0
2016-Jul-24 19:33N 52°06' E 004°16'0 0.0
2016-Jul-24 18:27N 52°06' E 004°16'0 0.0
2016-Jul-24 17:32N 52°06' E 004°16'0 0.0
2016-Jul-24 16:32N 52°06' E 004°16'0 0.0
2016-Jul-24 15:32N 52°06' E 004°16'0 0.0
2016-Jul-24 14:31N 52°06' E 004°16'0 0.0
2016-Jul-24 13:22N 52°06' E 004°16'0 0.0
2016-Jul-24 12:33N 52°06' E 004°16'0 0.0
2016-Jul-24 11:30N 52°06' E 004°16'0 0.0
2016-Jul-24 10:32N 52°06' E 004°16'0 0.0
2016-Jul-24 09:32N 52°06' E 004°16'0 0.0
2016-Jul-24 08:32N 52°06' E 004°16'0 0.0
2016-Jul-24 07:31N 52°06' E 004°16'0 0.0
2016-Jul-24 06:28N 52°06' E 004°16'0 0.0
2016-Jul-24 05:27N 52°06' E 004°16'0 0.0
2016-Jul-24 04:30N 52°06' E 004°16'0 0.0
2016-Jul-24 03:29N 52°06' E 004°16'0 0.0
2016-Jul-24 02:29N 52°06' E 004°16'0 0.0
2016-Jul-24 01:32N 52°06' E 004°16'0 0.0
2016-Jul-24 00:31N 52°06' E 004°16'0 0.0
2016-Jul-23 23:31N 52°06' E 004°16'0 0.0
2016-Jul-23 22:30N 52°06' E 004°16'0 0.0
2016-Jul-23 21:30N 52°06' E 004°16'0 0.0
2016-Jul-23 20:32N 52°06' E 004°16'0 0.0
2016-Jul-23 19:32N 52°06' E 004°16'0 0.0
2016-Jul-23 18:32N 52°06' E 004°16'0 0.0
2016-Jul-23 17:31N 52°06' E 004°16'0 0.0
2016-Jul-23 16:31N 52°06' E 004°16'0 0.0
2016-Jul-23 15:30N 52°06' E 004°16'0 0.0
2016-Jul-23 14:33N 52°06' E 004°16'0 0.0
2016-Jul-23 13:32N 52°06' E 004°16'0 0.0
2016-Jul-23 12:29N 52°06' E 004°16'0 0.0
2016-Jul-23 11:28N 52°06' E 004°16'0 0.0
2016-Jul-23 10:22N 52°06' E 004°16'0 0.0
2016-Jul-23 09:31N 52°06' E 004°16'0 0.0
2016-Jul-23 08:33N 52°06' E 004°16'0 0.0
2016-Jul-23 07:33N 52°06' E 004°16'0 0.0
2016-Jul-23 06:29N 52°06' E 004°16'0 0.0
2016-Jul-23 04:31N 52°06' E 004°16'0 0.0
2016-Jul-23 03:31N 52°06' E 004°16'0 0.0
2016-Jul-23 02:31N 52°06' E 004°16'0 0.0
2016-Jul-23 01:30N 52°06' E 004°16'0 0.0
2016-Jul-23 00:33N 52°06' E 004°16'0 0.0
2016-Jul-22 23:29N 52°06' E 004°16'0 0.0
2016-Jul-22 22:29N 52°06' E 004°16'0 0.0
2016-Jul-22 21:28N 52°06' E 004°16'0 0.0
2016-Jul-22 20:28N 52°06' E 004°16'0 0.0
2016-Jul-22 19:31N 52°06' E 004°16'0 0.0
2016-Jul-22 18:27N 52°06' E 004°16'0 0.0
2016-Jul-22 17:24N 52°06' E 004°16'0 0.0
2016-Jul-22 16:32N 52°06' E 004°16'0 0.0
2016-Jul-22 15:29N 52°06' E 004°16'0 0.0
2016-Jul-22 14:25N 52°06' E 004°16'0 0.0
2016-Jul-22 13:31N 52°06' E 004°16'0 0.0
2016-Jul-22 12:31N 52°06' E 004°16'0 0.0
2016-Jul-22 11:27N 52°06' E 004°16'0 0.0
2016-Jul-22 10:30N 52°06' E 004°16'0 0.0
2016-Jul-22 09:32N 52°06' E 004°16'0 0.0
2016-Jul-22 08:31N 52°06' E 004°16'0 0.0
2016-Jul-22 07:18N 52°06' E 004°16'0 0.0
2016-Jul-22 05:33N 52°06' E 004°16'0 0.0
2016-Jul-22 04:33N 52°06' E 004°16'0 0.0
2016-Jul-22 03:33N 52°06' E 004°16'0 0.0
2016-Jul-22 02:33N 52°06' E 004°16'5 5.5
2016-Jul-22 01:33N 52°09' E 004°09'1010.1
2016-Jul-22 00:33N 52°16' E 003°56'1110.3
2016-Jul-21 23:30N 52°24' E 003°44'1010.4
2016-Jul-21 22:30N 52°32' E 003°33'3610.9
2016-Jul-21 19:14N 52°58' E 002°53'5 6.6
2016-Jul-21 18:31N 53°01' E 002°47'1 0.6
2016-Jul-21 17:33N 53°00' E 002°46'2 0.9
2016-Jul-21 15:33N 52°59' E 002°47'76 3.8
2016-Jul-20 19:32N 51°42' E 002°52'10 8.9
2016-Jul-20 18:27N 51°33' E 002°52'3 2.9
2016-Jul-20 17:32N 51°30' E 002°54'1 1.5
2016-Jul-20 16:33N 51°29' E 002°52'1 1.4
2016-Jul-20 15:30N 51°28' E 002°50'1 0.6
2016-Jul-20 14:12N 51°28' E 002°49'1 0.9
2016-Jul-20 13:29N 51°29' E 002°49'3 3.0
2016-Jul-20 12:24N 51°27' E 002°46'1111.7
2016-Jul-20 11:27N 51°18' E 002°34'4 4.5
2016-Jul-20 10:32N 51°15' E 002°29'0 0.3
2016-Jul-20 09:26N 51°15' E 002°29'3 2.3
2016-Jul-20 08:17N 51°18' E 002°29'1 1.4
2016-Jul-20 07:25N 51°19' E 002°31'3 3.2
2016-Jul-20 06:33N 51°17' E 002°28'8 8.3
2016-Jul-20 05:32N 51°15' E 002°15'9 9.5
2016-Jul-20 04:33N 51°14' E 002°00'2 1.6
2016-Jul-20 03:33N 51°13' E 001°58'2 2.1
2016-Jul-20 02:33N 51°11' E 001°59'7 6.7
2016-Jul-20 01:33N 51°08' E 002°09'8 8.1
2016-Jul-20 00:33N 51°09' E 002°21'8 8.1
2016-Jul-19 23:33N 51°13' E 002°33'9 8.7
2016-Jul-19 22:33N 51°15' E 002°46'6 6.0
2016-Jul-19 21:34N 51°14' E 002°56'0 0.0
2016-Jul-19 20:33N 51°14' E 002°56'7 7.4
2016-Jul-19 19:33N 51°15' E 002°44'6 6.0
2016-Jul-19 18:33N 51°16' E 002°35'  
Track history (hours):
 
Tides and Currents Weather Stations Pressure Air Temp Water Temp Dewpoint Dewpoint Depression Visibility Wind Speed Wind Dir Waves Ship Positions

Sch-135 Galibier

Last reported at 2016-Jul-29 17:33 UTC. Time now 2016-Jul-29 17:51 UTC.
Position N 52°06' E 004°16'.

Length 35 m; draft 4.2 m.

Type: Fishing. MMSI: 244630637.

Date/timePositionNaut miles runAvg speedWind from/ knotsBaromVisibWave heightAir tempDewpointWater temp
2016-Jul-29 17:33N 52°06' E 004°16'0 0.0
2016-Jul-29 16:33N 52°06' E 004°16'0 0.0
2016-Jul-29 15:33N 52°06' E 004°16'0 0.0
2016-Jul-29 14:33N 52°06' E 004°16'0 0.0
2016-Jul-29 13:34N 52°06' E 004°16'0 0.0
2016-Jul-29 12:33N 52°06' E 004°16'0 0.0
2016-Jul-29 11:33N 52°06' E 004°16'0 0.0
2016-Jul-29 10:33N 52°06' E 004°16'0 0.0
2016-Jul-29 09:33N 52°06' E 004°16'0 0.0
2016-Jul-29 08:33N 52°06' E 004°16'0 0.0
2016-Jul-29 07:33N 52°06' E 004°16'0 0.0
2016-Jul-29 06:33N 52°06' E 004°16'0 0.0
2016-Jul-29 05:33N 52°06' E 004°16'0 0.0
2016-Jul-29 04:33N 52°06' E 004°16'0 0.0
2016-Jul-29 03:33N 52°06' E 004°16'0 0.0
2016-Jul-29 02:33N 52°06' E 004°16'0 0.0
2016-Jul-29 01:33N 52°06' E 004°16'0 0.0
2016-Jul-29 00:33N 52°06' E 004°16'0 0.0
2016-Jul-28 23:33N 52°06' E 004°16'0 0.1
2016-Jul-28 22:33N 52°06' E 004°16'7 6.5
2016-Jul-28 21:33N 52°11' E 004°10'9 9.3
2016-Jul-28 20:33N 52°18' E 003°60'56 2.6
2016-Jul-27 22:33N 52°55' E 002°49'4 3.6
2016-Jul-27 21:33N 52°52' E 002°45'37 2.0
2016-Jul-27 03:24N 52°27' E 003°29'11 9.8
2016-Jul-27 02:17N 52°20' E 003°43'710.1
2016-Jul-27 01:33N 52°16' E 003°53'10 9.9
2016-Jul-27 00:33N 52°11' E 004°06'8 7.7
2016-Jul-26 23:33N 52°06' E 004°16'0 0.0
2016-Jul-26 22:33N 52°06' E 004°16'10 9.8
2016-Jul-26 21:33N 52°12' E 004°04'1010.1
2016-Jul-26 20:32N 52°18' E 003°50'3 0.1
2016-Jul-24 23:33N 52°18' E 003°54'10 9.8
2016-Jul-24 22:33N 52°12' E 004°06'8 8.1
2016-Jul-24 21:31N 52°06' E 004°16'0 0.0
2016-Jul-24 20:31N 52°06' E 004°16'0 0.0
2016-Jul-24 19:33N 52°06' E 004°16'0 0.0
2016-Jul-24 18:27N 52°06' E 004°16'0 0.0
2016-Jul-24 17:32N 52°06' E 004°16'0 0.0
2016-Jul-24 16:32N 52°06' E 004°16'0 0.0
2016-Jul-24 15:32N 52°06' E 004°16'0 0.0
2016-Jul-24 14:31N 52°06' E 004°16'0 0.0
2016-Jul-24 13:22N 52°06' E 004°16'0 0.0
2016-Jul-24 12:33N 52°06' E 004°16'0 0.0
2016-Jul-24 11:30N 52°06' E 004°16'0 0.0
2016-Jul-24 10:32N 52°06' E 004°16'0 0.0
2016-Jul-24 09:32N 52°06' E 004°16'0 0.0
2016-Jul-24 08:32N 52°06' E 004°16'0 0.0
2016-Jul-24 07:31N 52°06' E 004°16'0 0.0
2016-Jul-24 06:28N 52°06' E 004°16'0 0.0
2016-Jul-24 05:27N 52°06' E 004°16'0 0.0
2016-Jul-24 04:30N 52°06' E 004°16'0 0.0
2016-Jul-24 03:29N 52°06' E 004°16'0 0.0
2016-Jul-24 02:29N 52°06' E 004°16'0 0.0
2016-Jul-24 01:32N 52°06' E 004°16'0 0.0
2016-Jul-24 00:31N 52°06' E 004°16'0 0.0
2016-Jul-23 23:31N 52°06' E 004°16'0 0.0
2016-Jul-23 22:30N 52°06' E 004°16'0 0.0
2016-Jul-23 21:30N 52°06' E 004°16'0 0.0
2016-Jul-23 20:32N 52°06' E 004°16'0 0.0
2016-Jul-23 19:32N 52°06' E 004°16'0 0.0
2016-Jul-23 18:32N 52°06' E 004°16'0 0.0
2016-Jul-23 17:31N 52°06' E 004°16'0 0.0
2016-Jul-23 16:31N 52°06' E 004°16'0 0.0
2016-Jul-23 15:30N 52°06' E 004°16'0 0.0
2016-Jul-23 14:33N 52°06' E 004°16'0 0.0
2016-Jul-23 13:32N 52°06' E 004°16'0 0.0
2016-Jul-23 12:29N 52°06' E 004°16'0 0.0
2016-Jul-23 11:28N 52°06' E 004°16'0 0.0
2016-Jul-23 10:22N 52°06' E 004°16'0 0.0
2016-Jul-23 09:31N 52°06' E 004°16'0 0.0
2016-Jul-23 08:33N 52°06' E 004°16'0 0.0
2016-Jul-23 07:33N 52°06' E 004°16'0 0.0
2016-Jul-23 06:29N 52°06' E 004°16'0 0.0
2016-Jul-23 04:31N 52°06' E 004°16'0 0.0
2016-Jul-23 03:31N 52°06' E 004°16'0 0.0
2016-Jul-23 02:31N 52°06' E 004°16'0 0.0
2016-Jul-23 01:30N 52°06' E 004°16'0 0.0
2016-Jul-23 00:33N 52°06' E 004°16'0 0.0
2016-Jul-22 23:29N 52°06' E 004°16'0 0.0
2016-Jul-22 22:29N 52°06' E 004°16'0 0.0
2016-Jul-22 21:28N 52°06' E 004°16'0 0.0
2016-Jul-22 20:28N 52°06' E 004°16'0 0.0
2016-Jul-22 19:31N 52°06' E 004°16'0 0.0
2016-Jul-22 18:27N 52°06' E 004°16'0 0.0
2016-Jul-22 17:24N 52°06' E 004°16'0 0.0
2016-Jul-22 16:32N 52°06' E 004°16'0 0.0
2016-Jul-22 15:29N 52°06' E 004°16'0 0.0
2016-Jul-22 14:25N 52°06' E 004°16'0 0.0
2016-Jul-22 13:31N 52°06' E 004°16'0 0.0
2016-Jul-22 12:31N 52°06' E 004°16'0 0.0
2016-Jul-22 11:27N 52°06' E 004°16'0 0.0
2016-Jul-22 10:30N 52°06' E 004°16'0 0.0
2016-Jul-22 09:32N 52°06' E 004°16'0 0.0
2016-Jul-22 08:31N 52°06' E 004°16'0 0.0
2016-Jul-22 07:18N 52°06' E 004°16'0 0.0
2016-Jul-22 05:33N 52°06' E 004°16'0 0.0
2016-Jul-22 04:33N 52°06' E 004°16'0 0.0
2016-Jul-22 03:33N 52°06' E 004°16'0 0.0
2016-Jul-22 02:33N 52°06' E 004°16'5 5.5
2016-Jul-22 01:33N 52°09' E 004°09'1010.1
2016-Jul-22 00:33N 52°16' E 003°56'1110.3
2016-Jul-21 23:30N 52°24' E 003°44'1010.4
2016-Jul-21 22:30N 52°32' E 003°33'3610.9
2016-Jul-21 19:14N 52°58' E 002°53'5 6.6
2016-Jul-21 18:31N 53°01' E 002°47'1 0.6
2016-Jul-21 17:33N 53°00' E 002°46'2 0.9
2016-Jul-21 15:33N 52°59' E 002°47'76 3.8
2016-Jul-20 19:32N 51°42' E 002°52'10 8.9
2016-Jul-20 18:27N 51°33' E 002°52'3 2.9
2016-Jul-20 17:32N 51°30' E 002°54'1 1.5
2016-Jul-20 16:33N 51°29' E 002°52'1 1.4
2016-Jul-20 15:30N 51°28' E 002°50'1 0.6
2016-Jul-20 14:12N 51°28' E 002°49'1 0.9
2016-Jul-20 13:29N 51°29' E 002°49'3 3.0
2016-Jul-20 12:24N 51°27' E 002°46'1111.7
2016-Jul-20 11:27N 51°18' E 002°34'4 4.5
2016-Jul-20 10:32N 51°15' E 002°29'0 0.3
2016-Jul-20 09:26N 51°15' E 002°29'3 2.3
2016-Jul-20 08:17N 51°18' E 002°29'1 1.4
2016-Jul-20 07:25N 51°19' E 002°31'3 3.2
2016-Jul-20 06:33N 51°17' E 002°28'8 8.3
2016-Jul-20 05:32N 51°15' E 002°15'9 9.5
2016-Jul-20 04:33N 51°14' E 002°00'2 1.6
2016-Jul-20 03:33N 51°13' E 001°58'2 2.1
2016-Jul-20 02:33N 51°11' E 001°59'7 6.7
2016-Jul-20 01:33N 51°08' E 002°09'8 8.1
2016-Jul-20 00:33N 51°09' E 002°21'8 8.1
2016-Jul-19 23:33N 51°13' E 002°33'9 8.7
2016-Jul-19 22:33N 51°15' E 002°46'6 6.0
2016-Jul-19 21:34N 51°14' E 002°56'0 0.0
2016-Jul-19 20:33N 51°14' E 002°56'7 7.4
2016-Jul-19 19:33N 51°15' E 002°44'6 6.0
2016-Jul-19 18:33N 51°16' E 002°35'  

Dump ship's entire track history